aviador You're here:

PABA Decoded Metar

BARTER ISLAND in AK, USA
Report Time2017-09-24 12:03:00
UTC Time2017-09-24 12:11:05
Flight Rules lifr LIFR
Wind050° at 09 kt
W.Decomp.*RWY 07: 6.1 kt HW 6.6 kt LCW
W.Rank050° ranks 14
Current wind is above 050° avg. (8.4)
Visibility3219 m
Phenomena:Mist
Clouds:Overcast 004 Hf
Expected CloudBase > 400 ft AGL from Temp-Dew spread
Ceiling400 ft
Temp02°C (ISA -13)
Dew Point01°C (93% RH)
AAT-3.1°C
QNH1012 hPa
Density Alt-1,450 ft
Elevation7 ft
Report Wrong Elevation
Raw Report
PABA 241203Z AUTO 05009KT 2SM UP BR OVC004 02/01 A2989 RMK AO2
P0000 FZRANO TSNO=

Extra information for PABA:More info

Airport Information Weather charts Add Link Nearby Venues Social comments

AIRNAV info for PABA